sensor_id;sensor_type;location;lat;lon;timestamp;pressure;altitude;pressure_sealevel;temperature;humidity
56040;BME280;43937;41.366;2.072;2024-03-06T00:00:40;101429.69;;;12.88;59.98
56040;BME280;43937;41.366;2.072;2024-03-06T00:03:06;101434.81;;;12.91;59.94
56040;BME280;43937;41.366;2.072;2024-03-06T00:05:31;101428.63;;;12.80;60.48
56040;BME280;43937;41.366;2.072;2024-03-06T00:07:57;101398.81;;;12.53;60.62
56040;BME280;43937;41.366;2.072;2024-03-06T00:10:22;101418.47;;;12.56;60.79
56040;BME280;43937;41.366;2.072;2024-03-06T00:12:48;101431.91;;;12.84;59.73
56040;BME280;43937;41.366;2.072;2024-03-06T00:15:14;101422.09;;;12.65;59.44
56040;BME280;43937;41.366;2.072;2024-03-06T00:17:39;101443.03;;;12.56;59.94
56040;BME280;43937;41.366;2.072;2024-03-06T00:20:05;101433.81;;;12.57;59.60
56040;BME280;43937;41.366;2.072;2024-03-06T00:22:30;101425.56;;;12.49;59.33
56040;BME280;43937;41.366;2.072;2024-03-06T00:24:56;101451.34;;;12.47;59.77
56040;BME280;43937;41.366;2.072;2024-03-06T00:27:22;101444.22;;;12.02;61.26
56040;BME280;43937;41.366;2.072;2024-03-06T00:29:47;101443.75;;;11.88;62.09
56040;BME280;43937;41.366;2.072;2024-03-06T00:32:13;101458.41;;;11.87;63.51
56040;BME280;43937;41.366;2.072;2024-03-06T00:34:39;101440.94;;;11.80;64.51
56040;BME280;43937;41.366;2.072;2024-03-06T00:37:04;101456.31;;;11.99;64.49
56040;BME280;43937;41.366;2.072;2024-03-06T00:39:30;101453.13;;;11.68;64.73
56040;BME280;43937;41.366;2.072;2024-03-06T00:41:55;101464.88;;;11.68;65.55
56040;BME280;43937;41.366;2.072;2024-03-06T00:44:21;101461.28;;;11.50;66.75
56040;BME280;43937;41.366;2.072;2024-03-06T00:46:46;101428.09;;;11.55;65.87
56040;BME280;43937;41.366;2.072;2024-03-06T00:49:11;101461.03;;;11.61;66.85
56040;BME280;43937;41.366;2.072;2024-03-06T00:51:37;101452.09;;;11.51;66.29
56040;BME280;43937;41.366;2.072;2024-03-06T00:54:03;101451.78;;;11.54;65.53
56040;BME280;43937;41.366;2.072;2024-03-06T00:56:29;101465.41;;;11.54;65.17
56040;BME280;43937;41.366;2.072;2024-03-06T00:58:56;101468.84;;;11.56;65.77
56040;BME280;43937;41.366;2.072;2024-03-06T01:01:21;101453.09;;;11.32;66.20
56040;BME280;43937;41.366;2.072;2024-03-06T01:03:47;101470.09;;;11.44;66.36
56040;BME280;43937;41.366;2.072;2024-03-06T01:06:12;101459.53;;;11.31;66.98
56040;BME280;43937;41.366;2.072;2024-03-06T01:08:38;101456.56;;;11.24;68.00
56040;BME280;43937;41.366;2.072;2024-03-06T01:11:03;101440.31;;;11.15;67.64
56040;BME280;43937;41.366;2.072;2024-03-06T01:13:30;101470.47;;;11.04;68.71
56040;BME280;43937;41.366;2.072;2024-03-06T01:15:55;101455.50;;;11.17;67.75
56040;BME280;43937;41.366;2.072;2024-03-06T01:18:21;101448.44;;;10.97;68.79
56040;BME280;43937;41.366;2.072;2024-03-06T01:20:46;101464.97;;;11.13;68.64
56040;BME280;43937;41.366;2.072;2024-03-06T01:23:11;101469.38;;;10.96;70.05
56040;BME280;43937;41.366;2.072;2024-03-06T01:25:37;101457.63;;;10.96;69.23
56040;BME280;43937;41.366;2.072;2024-03-06T01:28:02;101464.72;;;11.07;69.44
56040;BME280;43937;41.366;2.072;2024-03-06T01:30:28;101439.88;;;11.10;69.08
56040;BME280;43937;41.366;2.072;2024-03-06T01:32:53;101441.69;;;11.19;68.73
56040;BME280;43937;41.366;2.072;2024-03-06T01:35:19;101453.22;;;11.13;69.36
56040;BME280;43937;41.366;2.072;2024-03-06T01:37:45;101367.41;;;10.81;68.69
56040;BME280;43937;41.366;2.072;2024-03-06T01:40:11;101433.69;;;11.17;68.95
56040;BME280;43937;41.366;2.072;2024-03-06T01:42:37;101438.63;;;11.04;70.01
56040;BME280;43937;41.366;2.072;2024-03-06T01:45:03;101417.31;;;10.99;70.20
56040;BME280;43937;41.366;2.072;2024-03-06T01:47:29;101432.56;;;11.10;70.45
56040;BME280;43937;41.366;2.072;2024-03-06T01:49:55;101418.03;;;11.02;70.26
56040;BME280;43937;41.366;2.072;2024-03-06T01:52:21;101411.69;;;11.01;69.34
56040;BME280;43937;41.366;2.072;2024-03-06T01:54:47;101405.03;;;10.95;69.94
56040;BME280;43937;41.366;2.072;2024-03-06T01:57:15;101426.16;;;11.29;69.51
56040;BME280;43937;41.366;2.072;2024-03-06T01:59:42;101394.59;;;11.09;69.68
56040;BME280;43937;41.366;2.072;2024-03-06T02:02:08;101394.94;;;10.78;71.39
56040;BME280;43937;41.366;2.072;2024-03-06T02:04:39;101384.72;;;10.80;72.10
56040;BME280;43937;41.366;2.072;2024-03-06T02:07:09;101407.34;;;10.90;71.96
56040;BME280;43937;41.366;2.072;2024-03-06T02:09:38;101402.59;;;10.92;71.84
56040;BME280;43937;41.366;2.072;2024-03-06T02:12:07;101389.00;;;10.83;72.58
56040;BME280;43937;41.366;2.072;2024-03-06T02:14:34;101362.97;;;10.52;73.25
56040;BME280;43937;41.366;2.072;2024-03-06T02:17:00;101384.59;;;10.82;72.93
56040;BME280;43937;41.366;2.072;2024-03-06T02:19:37;101380.84;;;10.83;72.99
56040;BME280;43937;41.366;2.072;2024-03-06T02:22:03;101380.94;;;10.91;72.27
56040;BME280;43937;41.366;2.072;2024-03-06T02:24:28;101374.31;;;10.75;72.70
56040;BME280;43937;41.366;2.072;2024-03-06T02:26:54;101373.53;;;10.55;73.53
56040;BME280;43937;41.366;2.072;2024-03-06T02:29:19;101375.41;;;10.55;74.36
56040;BME280;43937;41.366;2.072;2024-03-06T02:31:44;101392.66;;;10.73;74.12
56040;BME280;43937;41.366;2.072;2024-03-06T02:34:10;101373.09;;;10.60;73.78
56040;BME280;43937;41.366;2.072;2024-03-06T02:36:35;101390.50;;;10.95;73.17
56040;BME280;43937;41.366;2.072;2024-03-06T02:39:01;101379.06;;;10.91;73.34
56040;BME280;43937;41.366;2.072;2024-03-06T02:41:27;101387.97;;;10.93;73.50
56040;BME280;43937;41.366;2.072;2024-03-06T02:43:52;101356.28;;;10.74;73.28
56040;BME280;43937;41.366;2.072;2024-03-06T02:46:17;101376.06;;;10.67;73.12
56040;BME280;43937;41.366;2.072;2024-03-06T02:48:43;101389.28;;;10.62;73.96
56040;BME280;43937;41.366;2.072;2024-03-06T02:51:08;101377.63;;;10.42;74.86
56040;BME280;43937;41.366;2.072;2024-03-06T02:53:34;101370.75;;;10.38;74.57
56040;BME280;43937;41.366;2.072;2024-03-06T02:55:59;101393.25;;;10.40;73.89
56040;BME280;43937;41.366;2.072;2024-03-06T02:58:25;101383.22;;;10.40;74.56
56040;BME280;43937;41.366;2.072;2024-03-06T03:00:50;101385.44;;;10.27;75.64
56040;BME280;43937;41.366;2.072;2024-03-06T03:03:16;101379.22;;;10.35;74.84
56040;BME280;43937;41.366;2.072;2024-03-06T03:05:41;101368.03;;;10.47;73.96
56040;BME280;43937;41.366;2.072;2024-03-06T03:08:07;101333.00;;;10.52;72.18
56040;BME280;43937;41.366;2.072;2024-03-06T03:10:33;101365.97;;;10.49;72.64
56040;BME280;43937;41.366;2.072;2024-03-06T03:13:01;101369.22;;;10.63;72.00
56040;BME280;43937;41.366;2.072;2024-03-06T03:15:27;101364.44;;;10.74;71.05
56040;BME280;43937;41.366;2.072;2024-03-06T03:17:53;101356.19;;;10.84;69.54
56040;BME280;43937;41.366;2.072;2024-03-06T03:20:18;101371.38;;;10.87;69.80
56040;BME280;43937;41.366;2.072;2024-03-06T03:22:44;101357.13;;;10.75;70.04
56040;BME280;43937;41.366;2.072;2024-03-06T03:25:10;101367.19;;;10.92;69.51
56040;BME280;43937;41.366;2.072;2024-03-06T03:27:39;101366.63;;;11.07;68.32
56040;BME280;43937;41.366;2.072;2024-03-06T03:30:09;101367.25;;;11.00;66.61
56040;BME280;43937;41.366;2.072;2024-03-06T03:32:35;101359.63;;;11.04;64.93
56040;BME280;43937;41.366;2.072;2024-03-06T03:35:02;101374.69;;;11.08;64.80
56040;BME280;43937;41.366;2.072;2024-03-06T03:37:27;101360.88;;;10.92;65.05
56040;BME280;43937;41.366;2.072;2024-03-06T03:39:53;101319.31;;;10.72;64.95
56040;BME280;43937;41.366;2.072;2024-03-06T03:42:19;101365.25;;;11.03;64.43
56040;BME280;43937;41.366;2.072;2024-03-06T03:44:46;101286.63;;;10.72;63.44
56040;BME280;43937;41.366;2.072;2024-03-06T03:47:11;101366.41;;;11.00;63.80
56040;BME280;43937;41.366;2.072;2024-03-06T03:49:38;101354.97;;;10.96;63.17
56040;BME280;43937;41.366;2.072;2024-03-06T03:52:03;101360.25;;;11.16;61.91
56040;BME280;43937;41.366;2.072;2024-03-06T03:54:29;101306.78;;;10.79;60.61
56040;BME280;43937;41.366;2.072;2024-03-06T03:56:54;101306.00;;;10.69;60.39
56040;BME280;43937;41.366;2.072;2024-03-06T03:59:20;101343.56;;;10.83;60.39
56040;BME280;43937;41.366;2.072;2024-03-06T04:01:45;101370.53;;;11.04;60.07
56040;BME280;43937;41.366;2.072;2024-03-06T04:04:14;101372.53;;;10.84;60.87
56040;BME280;43937;41.366;2.072;2024-03-06T04:06:39;101354.19;;;10.86;60.51
56040;BME280;43937;41.366;2.072;2024-03-06T04:09:05;101335.22;;;10.67;60.47
56040;BME280;43937;41.366;2.072;2024-03-06T04:11:30;101347.69;;;10.69;60.05
56040;BME280;43937;41.366;2.072;2024-03-06T04:13:59;101357.00;;;10.67;60.37
56040;BME280;43937;41.366;2.072;2024-03-06T04:16:24;101366.88;;;10.68;60.54
56040;BME280;43937;41.366;2.072;2024-03-06T04:18:50;101358.50;;;10.79;59.73
56040;BME280;43937;41.366;2.072;2024-03-06T04:21:15;101346.75;;;10.61;59.74
56040;BME280;43937;41.366;2.072;2024-03-06T04:23:41;101355.09;;;10.49;59.19
56040;BME280;43937;41.366;2.072;2024-03-06T04:26:06;101347.69;;;10.42;59.04
56040;BME280;43937;41.366;2.072;2024-03-06T04:28:32;101357.03;;;10.39;58.68
56040;BME280;43937;41.366;2.072;2024-03-06T04:30:57;101355.19;;;10.30;58.18
56040;BME280;43937;41.366;2.072;2024-03-06T04:33:23;101373.94;;;10.33;58.12
56040;BME280;43937;41.366;2.072;2024-03-06T04:35:48;101350.19;;;10.35;57.71
56040;BME280;43937;41.366;2.072;2024-03-06T04:38:14;101351.34;;;10.23;57.86
56040;BME280;43937;41.366;2.072;2024-03-06T04:40:40;101370.38;;;10.32;57.75
56040;BME280;43937;41.366;2.072;2024-03-06T04:43:05;101299.03;;;9.92;57.44
56040;BME280;43937;41.366;2.072;2024-03-06T04:45:32;101377.19;;;9.99;57.86
56040;BME280;43937;41.366;2.072;2024-03-06T04:47:58;101370.22;;;9.87;57.68
56040;BME280;43937;41.366;2.072;2024-03-06T04:50:24;101354.34;;;9.73;57.94
56040;BME280;43937;41.366;2.072;2024-03-06T04:52:49;101368.06;;;9.81;57.87
56040;BME280;43937;41.366;2.072;2024-03-06T04:55:14;101359.50;;;9.76;58.75
56040;BME280;43937;41.366;2.072;2024-03-06T04:57:45;101367.22;;;9.71;58.53
56040;BME280;43937;41.366;2.072;2024-03-06T05:00:11;101369.19;;;9.88;58.37
56040;BME280;43937;41.366;2.072;2024-03-06T05:02:37;101382.66;;;9.90;58.29
56040;BME280;43937;41.366;2.072;2024-03-06T05:05:03;101372.06;;;9.77;59.04
56040;BME280;43937;41.366;2.072;2024-03-06T05:07:30;101357.06;;;9.73;59.42
56040;BME280;43937;41.366;2.072;2024-03-06T05:09:56;101376.78;;;9.84;58.72
56040;BME280;43937;41.366;2.072;2024-03-06T05:12:25;101375.06;;;9.93;58.41
56040;BME280;43937;41.366;2.072;2024-03-06T05:14:54;101370.06;;;9.79;59.09
56040;BME280;43937;41.366;2.072;2024-03-06T05:17:20;101387.25;;;9.79;60.07
56040;BME280;43937;41.366;2.072;2024-03-06T05:19:46;101313.22;;;9.38;60.18
56040;BME280;43937;41.366;2.072;2024-03-06T05:22:13;101406.97;;;9.91;60.01
56040;BME280;43937;41.366;2.072;2024-03-06T05:24:39;101400.13;;;9.87;60.05
56040;BME280;43937;41.366;2.072;2024-03-06T05:27:05;101401.53;;;9.91;59.60
56040;BME280;43937;41.366;2.072;2024-03-06T05:29:31;101386.09;;;9.82;59.73
56040;BME280;43937;41.366;2.072;2024-03-06T05:31:56;101418.38;;;10.04;59.86
56040;BME280;43937;41.366;2.072;2024-03-06T05:34:22;101403.41;;;9.81;59.28
56040;BME280;43937;41.366;2.072;2024-03-06T05:36:48;101419.25;;;9.95;59.14
56040;BME280;43937;41.366;2.072;2024-03-06T05:39:14;101409.00;;;9.70;59.05
56040;BME280;43937;41.366;2.072;2024-03-06T05:41:40;101431.88;;;9.96;58.06
56040;BME280;43937;41.366;2.072;2024-03-06T05:44:06;101420.44;;;9.83;58.20
56040;BME280;43937;41.366;2.072;2024-03-06T05:46:31;101420.72;;;9.80;57.87
56040;BME280;43937;41.366;2.072;2024-03-06T05:48:57;101404.13;;;9.73;57.53
56040;BME280;43937;41.366;2.072;2024-03-06T05:51:23;101436.91;;;9.81;57.38
56040;BME280;43937;41.366;2.072;2024-03-06T05:53:48;101421.72;;;9.79;57.78
56040;BME280;43937;41.366;2.072;2024-03-06T05:56:14;101396.28;;;9.60;57.67
56040;BME280;43937;41.366;2.072;2024-03-06T05:58:39;101435.19;;;9.90;57.20
56040;BME280;43937;41.366;2.072;2024-03-06T06:01:05;101430.44;;;9.92;57.13
56040;BME280;43937;41.366;2.072;2024-03-06T06:03:30;101429.56;;;10.01;56.77
56040;BME280;43937;41.366;2.072;2024-03-06T06:05:56;101443.56;;;10.26;56.96
56040;BME280;43937;41.366;2.072;2024-03-06T06:08:22;101449.84;;;10.36;57.28
56040;BME280;43937;41.366;2.072;2024-03-06T06:10:47;101439.78;;;10.46;57.35
56040;BME280;43937;41.366;2.072;2024-03-06T06:13:13;101409.56;;;10.40;57.55
56040;BME280;43937;41.366;2.072;2024-03-06T06:15:40;101426.78;;;10.68;56.83
56040;BME280;43937;41.366;2.072;2024-03-06T06:18:05;101432.28;;;10.86;56.00
56040;BME280;43937;41.366;2.072;2024-03-06T06:20:31;101426.41;;;10.90;56.70
56040;BME280;43937;41.366;2.072;2024-03-06T06:22:56;101423.44;;;10.84;56.46
56040;BME280;43937;41.366;2.072;2024-03-06T06:25:22;101440.31;;;10.87;56.73
56040;BME280;43937;41.366;2.072;2024-03-06T06:27:48;101439.19;;;10.80;56.33
56040;BME280;43937;41.366;2.072;2024-03-06T06:30:15;101457.94;;;10.83;56.47
56040;BME280;43937;41.366;2.072;2024-03-06T06:32:41;101438.56;;;10.68;55.88
56040;BME280;43937;41.366;2.072;2024-03-06T06:35:07;101458.59;;;10.67;55.21
56040;BME280;43937;41.366;2.072;2024-03-06T06:37:34;101462.53;;;10.83;54.48
56040;BME280;43937;41.366;2.072;2024-03-06T06:39:59;101447.66;;;10.77;54.25
56040;BME280;43937;41.366;2.072;2024-03-06T06:42:25;101410.13;;;10.43;54.14
56040;BME280;43937;41.366;2.072;2024-03-06T06:44:51;101423.44;;;10.56;53.56
56040;BME280;43937;41.366;2.072;2024-03-06T06:47:17;101457.88;;;10.75;53.38
56040;BME280;43937;41.366;2.072;2024-03-06T06:49:42;101437.59;;;10.60;53.83
56040;BME280;43937;41.366;2.072;2024-03-06T06:52:08;101470.47;;;10.76;54.08
56040;BME280;43937;41.366;2.072;2024-03-06T06:54:33;101442.13;;;10.69;53.61
56040;BME280;43937;41.366;2.072;2024-03-06T06:56:58;101468.94;;;10.64;53.55
56040;BME280;43937;41.366;2.072;2024-03-06T06:59:24;101440.56;;;10.66;52.95
56040;BME280;43937;41.366;2.072;2024-03-06T07:01:49;101465.13;;;10.84;53.06
56040;BME280;43937;41.366;2.072;2024-03-06T07:04:15;101468.03;;;10.36;53.70
56040;BME280;43937;41.366;2.072;2024-03-06T07:06:46;101456.91;;;10.29;53.22
56040;BME280;43937;41.366;2.072;2024-03-06T07:09:12;101421.28;;;9.93;53.43
56040;BME280;43937;41.366;2.072;2024-03-06T07:11:41;101464.84;;;10.40;53.38
56040;BME280;43937;41.366;2.072;2024-03-06T07:14:11;101441.25;;;10.31;52.57
56040;BME280;43937;41.366;2.072;2024-03-06T07:16:44;101463.25;;;10.85;51.37
56040;BME280;43937;41.366;2.072;2024-03-06T07:19:10;101461.56;;;10.74;51.57
56040;BME280;43937;41.366;2.072;2024-03-06T07:21:36;101454.53;;;10.81;51.48
56040;BME280;43937;41.366;2.072;2024-03-06T07:24:03;101457.47;;;11.61;49.74
56040;BME280;43937;41.366;2.072;2024-03-06T07:26:30;101490.41;;;13.66;44.73
56040;BME280;43937;41.366;2.072;2024-03-06T07:28:56;101484.66;;;12.58;46.93
56040;BME280;43937;41.366;2.072;2024-03-06T07:31:23;101491.22;;;12.13;48.06
56040;BME280;43937;41.366;2.072;2024-03-06T07:33:48;101491.53;;;12.10;47.97
56040;BME280;43937;41.366;2.072;2024-03-06T07:36:14;101488.13;;;15.24;42.38
56040;BME280;43937;41.366;2.072;2024-03-06T07:38:42;101504.16;;;17.03;38.17
56040;BME280;43937;41.366;2.072;2024-03-06T07:41:07;101495.78;;;17.77;35.85
56040;BME280;43937;41.366;2.072;2024-03-06T07:43:33;101500.69;;;18.46;35.32
56040;BME280;43937;41.366;2.072;2024-03-06T07:45:58;101487.66;;;18.96;33.68
56040;BME280;43937;41.366;2.072;2024-03-06T07:48:24;101488.69;;;20.31;31.46
56040;BME280;43937;41.366;2.072;2024-03-06T07:50:50;101490.19;;;20.53;31.31
56040;BME280;43937;41.366;2.072;2024-03-06T07:53:15;101498.94;;;21.80;30.31
56040;BME280;43937;41.366;2.072;2024-03-06T07:55:41;101496.16;;;21.80;29.19
56040;BME280;43937;41.366;2.072;2024-03-06T07:58:07;101485.31;;;21.79;29.32
56040;BME280;43937;41.366;2.072;2024-03-06T08:00:36;101496.84;;;21.69;29.48
56040;BME280;43937;41.366;2.072;2024-03-06T08:03:02;101416.41;;;21.12;28.64
56040;BME280;43937;41.366;2.072;2024-03-06T08:05:30;101487.97;;;22.74;27.95
56040;BME280;43937;41.366;2.072;2024-03-06T08:07:57;101495.06;;;22.45;28.03
56040;BME280;43937;41.366;2.072;2024-03-06T08:10:23;101471.34;;;22.49;27.91
56040;BME280;43937;41.366;2.072;2024-03-06T08:12:48;101497.63;;;23.26;26.94
56040;BME280;43937;41.366;2.072;2024-03-06T08:15:14;101484.88;;;22.82;26.95
56040;BME280;43937;41.366;2.072;2024-03-06T08:17:41;101491.28;;;23.86;25.70
56040;BME280;43937;41.366;2.072;2024-03-06T08:20:08;101498.38;;;23.70;25.91
56040;BME280;43937;41.366;2.072;2024-03-06T08:22:35;101489.47;;;22.95;26.52
56040;BME280;43937;41.366;2.072;2024-03-06T08:25:08;101474.00;;;22.80;26.22
56040;BME280;43937;41.366;2.072;2024-03-06T08:27:35;101503.41;;;22.63;26.71
56040;BME280;43937;41.366;2.072;2024-03-06T08:30:05;101487.56;;;23.92;25.53
56040;BME280;43937;41.366;2.072;2024-03-06T08:32:31;101491.56;;;23.36;25.38
56040;BME280;43937;41.366;2.072;2024-03-06T08:35:09;101504.00;;;20.13;29.50
56040;BME280;43937;41.366;2.072;2024-03-06T08:37:41;101496.19;;;19.49;30.53
56040;BME280;43937;41.366;2.072;2024-03-06T08:40:08;101499.53;;;20.46;29.50
56040;BME280;43937;41.366;2.072;2024-03-06T08:42:42;101494.00;;;22.46;27.70
56040;BME280;43937;41.366;2.072;2024-03-06T08:45:08;101511.19;;;21.98;27.50
56040;BME280;43937;41.366;2.072;2024-03-06T08:47:34;101486.28;;;18.79;31.46
56040;BME280;43937;41.366;2.072;2024-03-06T08:50:00;101497.63;;;17.91;33.31
56040;BME280;43937;41.366;2.072;2024-03-06T08:52:28;101505.69;;;20.94;29.61
56040;BME280;43937;41.366;2.072;2024-03-06T08:54:53;101512.25;;;20.93;29.66
56040;BME280;43937;41.366;2.072;2024-03-06T08:57:19;101481.25;;;20.05;30.35
56040;BME280;43937;41.366;2.072;2024-03-06T08:59:46;101493.09;;;18.05;33.04
56040;BME280;43937;41.366;2.072;2024-03-06T09:02:14;101506.13;;;16.64;36.02
56040;BME280;43937;41.366;2.072;2024-03-06T09:04:44;101490.91;;;16.91;35.64
56040;BME280;43937;41.366;2.072;2024-03-06T09:07:09;101505.44;;;17.36;35.33
56040;BME280;43937;41.366;2.072;2024-03-06T09:09:36;101487.25;;;17.35;34.89
56040;BME280;43937;41.366;2.072;2024-03-06T09:12:03;101500.66;;;16.94;35.99
56040;BME280;43937;41.366;2.072;2024-03-06T09:14:31;101501.34;;;16.96;36.32
56040;BME280;43937;41.366;2.072;2024-03-06T09:16:57;101498.78;;;16.80;36.76
56040;BME280;43937;41.366;2.072;2024-03-06T09:19:22;101493.94;;;16.82;37.02
56040;BME280;43937;41.366;2.072;2024-03-06T09:21:48;101498.44;;;16.60;38.35
56040;BME280;43937;41.366;2.072;2024-03-06T09:24:13;101493.13;;;16.43;39.09
56040;BME280;43937;41.366;2.072;2024-03-06T09:26:39;101476.66;;;16.58;39.22
56040;BME280;43937;41.366;2.072;2024-03-06T09:29:05;101488.38;;;16.67;39.91
56040;BME280;43937;41.366;2.072;2024-03-06T09:31:30;101484.78;;;16.52;40.06
56040;BME280;43937;41.366;2.072;2024-03-06T09:33:56;101488.50;;;16.74;40.30
56040;BME280;43937;41.366;2.072;2024-03-06T09:36:22;101498.19;;;16.99;41.14
56040;BME280;43937;41.366;2.072;2024-03-06T09:38:48;101493.53;;;17.29;40.94
56040;BME280;43937;41.366;2.072;2024-03-06T09:41:13;101480.34;;;17.61;40.67
56040;BME280;43937;41.366;2.072;2024-03-06T09:43:40;101466.66;;;17.68;40.90
56040;BME280;43937;41.366;2.072;2024-03-06T09:46:08;101490.81;;;17.51;41.43
56040;BME280;43937;41.366;2.072;2024-03-06T09:48:34;101428.19;;;17.16;42.88
56040;BME280;43937;41.366;2.072;2024-03-06T09:51:01;101495.47;;;17.50;45.67
56040;BME280;43937;41.366;2.072;2024-03-06T09:53:27;101489.56;;;17.90;45.67
56040;BME280;43937;41.366;2.072;2024-03-06T09:55:55;101491.81;;;18.01;45.23
56040;BME280;43937;41.366;2.072;2024-03-06T09:58:22;101484.16;;;18.24;45.78
56040;BME280;43937;41.366;2.072;2024-03-06T10:00:49;101500.44;;;18.19;48.81
56040;BME280;43937;41.366;2.072;2024-03-06T10:03:15;101480.94;;;18.21;48.57
56040;BME280;43937;41.366;2.072;2024-03-06T10:05:41;101446.91;;;18.28;47.48
56040;BME280;43937;41.366;2.072;2024-03-06T10:08:09;101498.78;;;18.46;45.63
56040;BME280;43937;41.366;2.072;2024-03-06T10:10:35;101475.47;;;18.77;45.88
56040;BME280;43937;41.366;2.072;2024-03-06T10:13:02;101494.38;;;18.80;43.32
56040;BME280;43937;41.366;2.072;2024-03-06T10:15:27;101456.56;;;18.46;44.35
56040;BME280;43937;41.366;2.072;2024-03-06T10:18:13;101482.44;;;19.14;43.50
56040;BME280;43937;41.366;2.072;2024-03-06T10:20:39;101491.00;;;19.26;38.96
56040;BME280;43937;41.366;2.072;2024-03-06T10:23:09;101478.50;;;18.33;37.54
56040;BME280;43937;41.366;2.072;2024-03-06T10:25:35;101463.63;;;18.83;36.56
56040;BME280;43937;41.366;2.072;2024-03-06T10:28:08;101475.13;;;18.93;37.89
56040;BME280;43937;41.366;2.072;2024-03-06T10:30:35;101466.28;;;19.11;32.67
56040;BME280;43937;41.366;2.072;2024-03-06T10:33:05;101471.28;;;18.31;33.61
56040;BME280;43937;41.366;2.072;2024-03-06T10:35:36;101482.44;;;17.95;32.74
56040;BME280;43937;41.366;2.072;2024-03-06T10:38:07;101480.19;;;18.90;31.65
56040;BME280;43937;41.366;2.072;2024-03-06T10:40:37;101462.28;;;19.14;30.81
56040;BME280;43937;41.366;2.072;2024-03-06T10:43:05;101476.63;;;19.51;28.44
56040;BME280;43937;41.366;2.072;2024-03-06T10:48:08;101476.78;;;20.04;27.91
56040;BME280;43937;41.366;2.072;2024-03-06T10:50:39;101456.97;;;19.94;27.69
56040;BME280;43937;41.366;2.072;2024-03-06T10:53:08;101474.44;;;20.01;26.53
56040;BME280;43937;41.366;2.072;2024-03-06T10:55:35;101446.81;;;20.01;26.52
56040;BME280;43937;41.366;2.072;2024-03-06T10:58:06;101461.69;;;20.20;26.51
56040;BME280;43937;41.366;2.072;2024-03-06T11:00:40;101460.63;;;20.21;25.53
56040;BME280;43937;41.366;2.072;2024-03-06T11:03:07;101452.94;;;20.03;25.58
56040;BME280;43937;41.366;2.072;2024-03-06T11:05:37;101460.47;;;19.41;25.35
56040;BME280;43937;41.366;2.072;2024-03-06T11:08:09;101453.81;;;19.90;24.87
56040;BME280;43937;41.366;2.072;2024-03-06T11:10:37;101457.00;;;20.53;25.54
56040;BME280;43937;41.366;2.072;2024-03-06T11:13:08;101455.72;;;20.56;25.68
56040;BME280;43937;41.366;2.072;2024-03-06T11:15:34;101454.16;;;20.87;25.67
56040;BME280;43937;41.366;2.072;2024-03-06T11:23:34;101435.22;;;20.84;26.34
56040;BME280;43937;41.366;2.072;2024-03-06T11:26:04;101424.59;;;21.39;26.00
56040;BME280;43937;41.366;2.072;2024-03-06T11:28:35;101429.66;;;21.48;25.47
56040;BME280;43937;41.366;2.072;2024-03-06T11:33:40;101437.63;;;21.25;25.13
56040;BME280;43937;41.366;2.072;2024-03-06T11:36:19;101423.81;;;20.67;39.98
56040;BME280;43937;41.366;2.072;2024-03-06T11:39:08;101416.41;;;20.14;43.32
56040;BME280;43937;41.366;2.072;2024-03-06T11:44:19;101405.53;;;20.32;43.18
56040;BME280;43937;41.366;2.072;2024-03-06T11:49:23;101414.47;;;19.68;45.08
56040;BME280;43937;41.366;2.072;2024-03-06T11:51:55;101414.97;;;19.23;46.64
56040;BME280;43937;41.366;2.072;2024-03-06T11:54:25;101408.53;;;19.78;45.38
56040;BME280;43937;41.366;2.072;2024-03-06T11:56:55;101360.66;;;19.31;45.08
56040;BME280;43937;41.366;2.072;2024-03-06T11:59:32;101380.91;;;19.64;44.65
56040;BME280;43937;41.366;2.072;2024-03-06T12:01:59;101394.28;;;20.21;44.95
56040;BME280;43937;41.366;2.072;2024-03-06T12:04:35;101387.88;;;20.53;45.18
56040;BME280;43937;41.366;2.072;2024-03-06T12:07:04;101392.06;;;20.76;45.06
56040;BME280;43937;41.366;2.072;2024-03-06T12:09:32;101345.75;;;20.38;45.65
56040;BME280;43937;41.366;2.072;2024-03-06T12:11:58;101342.47;;;19.76;46.26
56040;BME280;43937;41.366;2.072;2024-03-06T12:14:24;101378.34;;;20.03;46.16
56040;BME280;43937;41.366;2.072;2024-03-06T12:16:56;101376.44;;;20.03;46.29
56040;BME280;43937;41.366;2.072;2024-03-06T12:19:22;101303.75;;;19.56;46.44
56040;BME280;43937;41.366;2.072;2024-03-06T12:21:48;101360.09;;;19.82;46.62
56040;BME280;43937;41.366;2.072;2024-03-06T12:24:16;101357.31;;;19.95;46.22
56040;BME280;43937;41.366;2.072;2024-03-06T12:26:41;101321.16;;;20.10;46.10
56040;BME280;43937;41.366;2.072;2024-03-06T12:29:08;101342.59;;;19.41;47.21
56040;BME280;43937;41.366;2.072;2024-03-06T12:31:35;101329.13;;;18.92;48.56
56040;BME280;43937;41.366;2.072;2024-03-06T12:34:02;101349.06;;;18.94;48.98
56040;BME280;43937;41.366;2.072;2024-03-06T12:36:28;101342.78;;;19.13;48.66
56040;BME280;43937;41.366;2.072;2024-03-06T12:38:55;101346.50;;;18.86;49.46
56040;BME280;43937;41.366;2.072;2024-03-06T12:41:21;101326.00;;;18.67;49.89
56040;BME280;43937;41.366;2.072;2024-03-06T12:43:47;101316.69;;;19.36;48.03
56040;BME280;43937;41.366;2.072;2024-03-06T12:46:12;101315.69;;;19.70;48.01
56040;BME280;43937;41.366;2.072;2024-03-06T12:48:38;101328.81;;;20.01;47.96
56040;BME280;43937;41.366;2.072;2024-03-06T12:51:03;101326.72;;;20.03;47.05
56040;BME280;43937;41.366;2.072;2024-03-06T12:53:32;101317.78;;;19.75;47.35
56040;BME280;43937;41.366;2.072;2024-03-06T12:56:01;101321.44;;;19.82;47.67
56040;BME280;43937;41.366;2.072;2024-03-06T12:58:26;101314.59;;;19.84;47.93
56040;BME280;43937;41.366;2.072;2024-03-06T13:00:52;101311.00;;;19.97;48.11
56040;BME280;43937;41.366;2.072;2024-03-06T13:03:19;101299.31;;;19.75;48.27